Earlington, PA (18918)

11:15 AM EDT on July 07, 2015 (GMT -0400)
Woxall, Back yard | | Change Station
CLOSE
Current Station
Personal Weather Station
Location: Harleysville, PA
Elevation: 430 ft
Nearby Weather Stations

Elev 430 ft 40.31 °N, 75.44 °W | Updated 8 seconds ago

Overcast
Overcast
82.4 °F
Feels Like 87 °F
N
2.7
Wind Variable Wind from ESE
Gusts 4.9 mph

Today
High -- | Low -- °F
--% Chance of Precip.
Yesterday
High -- | Low -- °F
Precip. -- in
5:38 AM 8:34 PM
Waning Gibbous, 64% visible
Pressure 30.06 in
Visibility 10.0 miles
Clouds Mostly Cloudy 1500 ft
Mostly Cloudy 3200 ft
Heat Index 87 °F
Dew Point 70 °F
Humidity 67%
Rainfall 0.00 in
Snow Depth Not available.
UV 5 out of 12
Pollen .90 out of 12
Air Quality Not available.
Flu Activity Not available.
METAR KUKT 071455Z AUTO 19008KT 10SM BKN015 BKN032 26/22 A3006 RMK AO1

More Conditions Fewer Conditions

Pressure 30.06 in
Visibility 10.0 miles
Clouds Mostly Cloudy 1500 ft
Mostly Cloudy 3200 ft
Heat Index 87 °F
Dew Point 70 °F
Humidity 67%
Rainfall 0.00 in
Snow Depth Not available.
UV 5 out of 12
Pollen .90 out of 12
Air Quality Not available.
Flu Activity Not available.
METAR KUKT 071455Z AUTO 19008KT 10SM BKN015 BKN032 26/22 A3006 RMK AO1

More Conditions Fewer Conditions

10-Day Weather Forecast

×

Almanac

Astronomy

Jul. 07, 2015 Rise Set
Actual Time
Civil Twilight
Nautical Twilight
Astronomical Twilight
Moon
Length of Visible Light
Length of Day
Tomorrow will be .
, % of the Moon is Illuminated

Today's Extremes

State Highs State Lows

Community

WunderPhotos

Upload Photos

1,835,815 photos uploaded!

WunderBlogs® & News

Nearby

Air Quality

  Air Quality AQ Index Pollutant
Not available.

Snow Depth

Station Depth Elevation

Earthquake Activity

City Distance Mag. Time & Date
Minimum magnitude displayed is 2.5.

Coastal Water Temperatures

Place Temperature

Stations

Nearby Weather Stations

Station Location Temp. Windchill Dew Point Humidity Wind Precip. Elev Updated Type